sensor_id;sensor_type;location;lat;lon;timestamp;P1;durP1;ratioP1;P2;durP2;ratioP2
1563;SDS011;775;51.958;7.976;2023-06-19T00:02:26;13.93;;;6.13;;
1563;SDS011;775;51.958;7.976;2023-06-19T00:04:53;14.73;;;7.10;;
1563;SDS011;775;51.958;7.976;2023-06-19T00:07:20;13.30;;;5.93;;
1563;SDS011;775;51.958;7.976;2023-06-19T00:09:47;13.17;;;5.87;;
1563;SDS011;775;51.958;7.976;2023-06-19T00:12:14;14.20;;;6.87;;
1563;SDS011;775;51.958;7.976;2023-06-19T00:14:42;13.20;;;5.90;;
1563;SDS011;775;51.958;7.976;2023-06-19T00:17:10;12.50;;;6.00;;
1563;SDS011;775;51.958;7.976;2023-06-19T00:19:37;14.30;;;6.63;;
1563;SDS011;775;51.958;7.976;2023-06-19T00:22:04;13.60;;;6.10;;
1563;SDS011;775;51.958;7.976;2023-06-19T00:24:31;13.80;;;6.20;;
1563;SDS011;775;51.958;7.976;2023-06-19T00:26:58;12.53;;;5.70;;
1563;SDS011;775;51.958;7.976;2023-06-19T00:29:28;13.20;;;5.80;;
1563;SDS011;775;51.958;7.976;2023-06-19T00:31:57;13.93;;;6.50;;
1563;SDS011;775;51.958;7.976;2023-06-19T00:34:24;13.40;;;6.70;;
1563;SDS011;775;51.958;7.976;2023-06-19T00:36:51;13.03;;;6.40;;
1563;SDS011;775;51.958;7.976;2023-06-19T00:39:21;14.80;;;6.60;;
1563;SDS011;775;51.958;7.976;2023-06-19T00:41:49;13.83;;;5.80;;
1563;SDS011;775;51.958;7.976;2023-06-19T00:44:16;14.13;;;6.77;;
1563;SDS011;775;51.958;7.976;2023-06-19T00:46:43;18.67;;;6.33;;
1563;SDS011;775;51.958;7.976;2023-06-19T00:49:12;13.40;;;5.70;;
1563;SDS011;775;51.958;7.976;2023-06-19T00:51:40;13.43;;;6.20;;
1563;SDS011;775;51.958;7.976;2023-06-19T00:54:07;14.00;;;6.67;;
1563;SDS011;775;51.958;7.976;2023-06-19T00:56:34;12.80;;;6.07;;
1563;SDS011;775;51.958;7.976;2023-06-19T00:59:05;13.27;;;6.30;;
1563;SDS011;775;51.958;7.976;2023-06-19T01:01:33;13.10;;;6.03;;
1563;SDS011;775;51.958;7.976;2023-06-19T01:04:00;13.60;;;6.00;;
1563;SDS011;775;51.958;7.976;2023-06-19T01:06:30;14.30;;;6.83;;
1563;SDS011;775;51.958;7.976;2023-06-19T01:09:04;14.93;;;5.80;;
1563;SDS011;775;51.958;7.976;2023-06-19T01:11:33;15.00;;;6.33;;
1563;SDS011;775;51.958;7.976;2023-06-19T01:14:03;14.47;;;6.67;;
1563;SDS011;775;51.958;7.976;2023-06-19T01:16:31;13.43;;;6.63;;
1563;SDS011;775;51.958;7.976;2023-06-19T01:18:59;12.50;;;6.10;;
1563;SDS011;775;51.958;7.976;2023-06-19T01:21:26;12.60;;;5.60;;
1563;SDS011;775;51.958;7.976;2023-06-19T01:23:55;14.10;;;6.90;;
1563;SDS011;775;51.958;7.976;2023-06-19T01:26:22;13.83;;;5.77;;
1563;SDS011;775;51.958;7.976;2023-06-19T01:28:51;15.20;;;7.13;;
1563;SDS011;775;51.958;7.976;2023-06-19T01:31:20;13.77;;;6.87;;
1563;SDS011;775;51.958;7.976;2023-06-19T01:33:47;13.87;;;7.00;;
1563;SDS011;775;51.958;7.976;2023-06-19T01:36:16;15.20;;;7.43;;
1563;SDS011;775;51.958;7.976;2023-06-19T01:38:44;14.03;;;6.57;;
1563;SDS011;775;51.958;7.976;2023-06-19T01:41:13;14.40;;;6.70;;
1563;SDS011;775;51.958;7.976;2023-06-19T01:43:41;13.03;;;6.40;;
1563;SDS011;775;51.958;7.976;2023-06-19T01:46:08;14.67;;;7.43;;
1563;SDS011;775;51.958;7.976;2023-06-19T01:48:38;18.77;;;7.60;;
1563;SDS011;775;51.958;7.976;2023-06-19T01:51:06;13.50;;;6.43;;
1563;SDS011;775;51.958;7.976;2023-06-19T01:53:33;15.73;;;7.00;;
1563;SDS011;775;51.958;7.976;2023-06-19T01:56:00;15.13;;;7.07;;
1563;SDS011;775;51.958;7.976;2023-06-19T01:58:29;14.60;;;6.70;;
1563;SDS011;775;51.958;7.976;2023-06-19T02:00:56;13.50;;;6.70;;
1563;SDS011;775;51.958;7.976;2023-06-19T02:03:23;12.83;;;6.37;;
1563;SDS011;775;51.958;7.976;2023-06-19T02:05:50;13.73;;;6.33;;
1563;SDS011;775;51.958;7.976;2023-06-19T02:08:17;13.40;;;7.33;;
1563;SDS011;775;51.958;7.976;2023-06-19T02:10:44;14.07;;;6.90;;
1563;SDS011;775;51.958;7.976;2023-06-19T02:13:11;13.07;;;5.40;;
1563;SDS011;775;51.958;7.976;2023-06-19T02:15:40;13.80;;;6.70;;
1563;SDS011;775;51.958;7.976;2023-06-19T02:18:08;13.70;;;7.07;;
1563;SDS011;775;51.958;7.976;2023-06-19T02:20:35;14.60;;;7.30;;
1563;SDS011;775;51.958;7.976;2023-06-19T02:23:02;13.67;;;7.10;;
1563;SDS011;775;51.958;7.976;2023-06-19T02:25:29;14.03;;;7.13;;
1563;SDS011;775;51.958;7.976;2023-06-19T02:27:56;14.07;;;6.90;;
1563;SDS011;775;51.958;7.976;2023-06-19T02:30:23;14.20;;;6.90;;
1563;SDS011;775;51.958;7.976;2023-06-19T02:32:52;14.20;;;6.93;;
1563;SDS011;775;51.958;7.976;2023-06-19T02:35:19;13.40;;;6.23;;
1563;SDS011;775;51.958;7.976;2023-06-19T02:37:46;13.77;;;6.60;;
1563;SDS011;775;51.958;7.976;2023-06-19T02:40:13;14.53;;;7.23;;
1563;SDS011;775;51.958;7.976;2023-06-19T02:42:40;14.47;;;7.87;;
1563;SDS011;775;51.958;7.976;2023-06-19T02:45:08;14.10;;;7.30;;
1563;SDS011;775;51.958;7.976;2023-06-19T02:47:35;13.97;;;6.40;;
1563;SDS011;775;51.958;7.976;2023-06-19T02:50:04;14.17;;;6.90;;
1563;SDS011;775;51.958;7.976;2023-06-19T02:52:31;14.00;;;7.33;;
1563;SDS011;775;51.958;7.976;2023-06-19T02:54:58;14.37;;;7.03;;
1563;SDS011;775;51.958;7.976;2023-06-19T02:57:25;14.53;;;7.47;;
1563;SDS011;775;51.958;7.976;2023-06-19T02:59:52;14.53;;;7.87;;
1563;SDS011;775;51.958;7.976;2023-06-19T03:02:19;14.60;;;7.77;;
1563;SDS011;775;51.958;7.976;2023-06-19T03:04:46;14.73;;;6.80;;
1563;SDS011;775;51.958;7.976;2023-06-19T03:07:15;16.17;;;7.50;;
1563;SDS011;775;51.958;7.976;2023-06-19T03:09:42;13.47;;;6.70;;
1563;SDS011;775;51.958;7.976;2023-06-19T03:12:09;15.60;;;8.17;;
1563;SDS011;775;51.958;7.976;2023-06-19T03:14:38;14.87;;;7.73;;
1563;SDS011;775;51.958;7.976;2023-06-19T03:17:05;14.47;;;7.73;;
1563;SDS011;775;51.958;7.976;2023-06-19T03:19:32;15.83;;;7.37;;
1563;SDS011;775;51.958;7.976;2023-06-19T03:22:00;13.60;;;6.60;;
1563;SDS011;775;51.958;7.976;2023-06-19T03:24:29;15.13;;;7.37;;
1563;SDS011;775;51.958;7.976;2023-06-19T03:26:56;13.50;;;6.90;;
1563;SDS011;775;51.958;7.976;2023-06-19T03:29:23;14.03;;;7.03;;
1563;SDS011;775;51.958;7.976;2023-06-19T03:31:50;15.97;;;7.50;;
1563;SDS011;775;51.958;7.976;2023-06-19T03:34:17;16.63;;;6.97;;
1563;SDS011;775;51.958;7.976;2023-06-19T03:36:45;14.60;;;7.73;;
1563;SDS011;775;51.958;7.976;2023-06-19T03:39:12;15.70;;;7.43;;
1563;SDS011;775;51.958;7.976;2023-06-19T03:41:41;14.93;;;7.43;;
1563;SDS011;775;51.958;7.976;2023-06-19T03:44:08;13.47;;;6.67;;
1563;SDS011;775;51.958;7.976;2023-06-19T03:46:35;14.27;;;7.00;;
1563;SDS011;775;51.958;7.976;2023-06-19T03:49:02;15.20;;;8.00;;
1563;SDS011;775;51.958;7.976;2023-06-19T03:51:31;13.90;;;6.50;;
1563;SDS011;775;51.958;7.976;2023-06-19T03:53:59;14.40;;;7.77;;
1563;SDS011;775;51.958;7.976;2023-06-19T03:56:26;13.20;;;7.03;;
1563;SDS011;775;51.958;7.976;2023-06-19T03:58:54;17.10;;;7.83;;
1563;SDS011;775;51.958;7.976;2023-06-19T04:01:21;14.63;;;7.20;;
1563;SDS011;775;51.958;7.976;2023-06-19T04:03:48;14.70;;;6.77;;
1563;SDS011;775;51.958;7.976;2023-06-19T04:06:15;14.17;;;7.27;;
1563;SDS011;775;51.958;7.976;2023-06-19T04:08:43;14.50;;;7.30;;
1563;SDS011;775;51.958;7.976;2023-06-19T04:11:10;14.60;;;6.83;;
1563;SDS011;775;51.958;7.976;2023-06-19T04:13:37;17.83;;;7.03;;
1563;SDS011;775;51.958;7.976;2023-06-19T04:16:05;27.93;;;8.00;;
1563;SDS011;775;51.958;7.976;2023-06-19T04:18:33;18.67;;;7.43;;
1563;SDS011;775;51.958;7.976;2023-06-19T04:21:00;19.20;;;7.67;;
1563;SDS011;775;51.958;7.976;2023-06-19T04:23:27;16.07;;;7.20;;
1563;SDS011;775;51.958;7.976;2023-06-19T04:25:54;14.77;;;6.97;;
1563;SDS011;775;51.958;7.976;2023-06-19T04:28:21;17.30;;;7.17;;
1563;SDS011;775;51.958;7.976;2023-06-19T04:30:48;17.90;;;7.97;;
1563;SDS011;775;51.958;7.976;2023-06-19T04:33:16;16.43;;;7.43;;
1563;SDS011;775;51.958;7.976;2023-06-19T04:35:46;16.80;;;7.37;;
1563;SDS011;775;51.958;7.976;2023-06-19T04:38:13;15.27;;;7.10;;
1563;SDS011;775;51.958;7.976;2023-06-19T04:40:40;16.20;;;7.17;;
1563;SDS011;775;51.958;7.976;2023-06-19T04:43:08;14.50;;;7.13;;
1563;SDS011;775;51.958;7.976;2023-06-19T04:45:35;14.20;;;7.37;;
1563;SDS011;775;51.958;7.976;2023-06-19T04:48:03;15.00;;;7.57;;
1563;SDS011;775;51.958;7.976;2023-06-19T04:50:31;16.03;;;6.80;;
1563;SDS011;775;51.958;7.976;2023-06-19T04:52:59;14.77;;;6.80;;
1563;SDS011;775;51.958;7.976;2023-06-19T04:55:26;13.27;;;6.23;;
1563;SDS011;775;51.958;7.976;2023-06-19T04:57:53;15.23;;;6.47;;
1563;SDS011;775;51.958;7.976;2023-06-19T05:00:20;14.27;;;6.87;;
1563;SDS011;775;51.958;7.976;2023-06-19T05:02:48;15.70;;;6.70;;
1563;SDS011;775;51.958;7.976;2023-06-19T05:05:15;13.70;;;6.10;;
1563;SDS011;775;51.958;7.976;2023-06-19T05:07:44;13.57;;;5.97;;
1563;SDS011;775;51.958;7.976;2023-06-19T05:10:11;15.07;;;5.87;;
1563;SDS011;775;51.958;7.976;2023-06-19T05:12:38;12.90;;;5.93;;
1563;SDS011;775;51.958;7.976;2023-06-19T05:15:06;14.10;;;5.73;;
1563;SDS011;775;51.958;7.976;2023-06-19T05:17:33;12.00;;;5.80;;
1563;SDS011;775;51.958;7.976;2023-06-19T05:20:01;13.17;;;5.93;;
1563;SDS011;775;51.958;7.976;2023-06-19T05:22:29;12.40;;;5.63;;
1563;SDS011;775;51.958;7.976;2023-06-19T05:25:00;13.57;;;6.10;;
1563;SDS011;775;51.958;7.976;2023-06-19T05:27:27;15.40;;;6.03;;
1563;SDS011;775;51.958;7.976;2023-06-19T05:29:54;12.60;;;5.70;;
1563;SDS011;775;51.958;7.976;2023-06-19T05:32:22;12.80;;;5.27;;
1563;SDS011;775;51.958;7.976;2023-06-19T05:34:49;12.90;;;5.90;;
1563;SDS011;775;51.958;7.976;2023-06-19T05:37:16;12.87;;;5.30;;
1563;SDS011;775;51.958;7.976;2023-06-19T05:39:43;12.83;;;5.27;;
1563;SDS011;775;51.958;7.976;2023-06-19T05:42:11;13.40;;;5.70;;
1563;SDS011;775;51.958;7.976;2023-06-19T05:44:38;12.60;;;4.80;;
1563;SDS011;775;51.958;7.976;2023-06-19T05:47:06;12.40;;;5.10;;
1563;SDS011;775;51.958;7.976;2023-06-19T05:49:33;13.67;;;4.57;;
1563;SDS011;775;51.958;7.976;2023-06-19T05:52:00;13.00;;;5.50;;
1563;SDS011;775;51.958;7.976;2023-06-19T05:54:27;13.30;;;5.70;;
1563;SDS011;775;51.958;7.976;2023-06-19T05:56:54;13.87;;;5.00;;
1563;SDS011;775;51.958;7.976;2023-06-19T05:59:22;16.73;;;5.00;;
1563;SDS011;775;51.958;7.976;2023-06-19T06:01:50;12.10;;;4.90;;
1563;SDS011;775;51.958;7.976;2023-06-19T06:04:18;12.10;;;4.67;;
1563;SDS011;775;51.958;7.976;2023-06-19T06:06:46;12.77;;;4.50;;
1563;SDS011;775;51.958;7.976;2023-06-19T06:09:14;12.20;;;4.30;;
1563;SDS011;775;51.958;7.976;2023-06-19T06:11:41;11.53;;;3.73;;
1563;SDS011;775;51.958;7.976;2023-06-19T06:14:08;12.83;;;4.67;;
1563;SDS011;775;51.958;7.976;2023-06-19T06:16:37;12.57;;;4.43;;
1563;SDS011;775;51.958;7.976;2023-06-19T06:19:04;12.90;;;4.60;;
1563;SDS011;775;51.958;7.976;2023-06-19T06:21:31;12.07;;;3.80;;
1563;SDS011;775;51.958;7.976;2023-06-19T06:23:59;11.87;;;4.50;;
1563;SDS011;775;51.958;7.976;2023-06-19T06:26:26;13.20;;;4.40;;
1563;SDS011;775;51.958;7.976;2023-06-19T06:28:54;11.90;;;4.03;;
1563;SDS011;775;51.958;7.976;2023-06-19T06:31:21;11.20;;;3.73;;
1563;SDS011;775;51.958;7.976;2023-06-19T06:33:50;12.60;;;4.60;;
1563;SDS011;775;51.958;7.976;2023-06-19T06:36:17;13.13;;;4.80;;
1563;SDS011;775;51.958;7.976;2023-06-19T06:38:44;12.07;;;4.23;;
1563;SDS011;775;51.958;7.976;2023-06-19T06:41:11;11.40;;;3.93;;
1563;SDS011;775;51.958;7.976;2023-06-19T06:43:40;14.87;;;4.30;;
1563;SDS011;775;51.958;7.976;2023-06-19T06:46:08;12.10;;;4.43;;
1563;SDS011;775;51.958;7.976;2023-06-19T06:48:35;13.37;;;4.33;;
1563;SDS011;775;51.958;7.976;2023-06-19T06:51:04;12.00;;;4.00;;
1563;SDS011;775;51.958;7.976;2023-06-19T06:53:31;12.07;;;4.00;;
1563;SDS011;775;51.958;7.976;2023-06-19T06:55:58;13.47;;;4.23;;
1563;SDS011;775;51.958;7.976;2023-06-19T06:58:25;12.37;;;4.00;;
1563;SDS011;775;51.958;7.976;2023-06-19T07:00:53;11.40;;;3.60;;
1563;SDS011;775;51.958;7.976;2023-06-19T07:03:20;11.67;;;3.57;;
1563;SDS011;775;51.958;7.976;2023-06-19T07:05:47;11.43;;;3.80;;
1563;SDS011;775;51.958;7.976;2023-06-19T07:08:16;12.23;;;4.00;;
1563;SDS011;775;51.958;7.976;2023-06-19T07:10:43;12.63;;;4.53;;
1563;SDS011;775;51.958;7.976;2023-06-19T07:13:10;14.00;;;3.63;;
1563;SDS011;775;51.958;7.976;2023-06-19T07:15:38;12.60;;;3.20;;
1563;SDS011;775;51.958;7.976;2023-06-19T07:18:05;11.40;;;3.80;;
1563;SDS011;775;51.958;7.976;2023-06-19T07:20:32;11.60;;;3.77;;
1563;SDS011;775;51.958;7.976;2023-06-19T07:22:59;11.07;;;3.60;;
1563;SDS011;775;51.958;7.976;2023-06-19T07:25:27;11.40;;;3.80;;
1563;SDS011;775;51.958;7.976;2023-06-19T07:27:54;11.00;;;3.70;;
1563;SDS011;775;51.958;7.976;2023-06-19T07:30:21;10.60;;;3.40;;
1563;SDS011;775;51.958;7.976;2023-06-19T07:32:48;14.00;;;4.10;;
1563;SDS011;775;51.958;7.976;2023-06-19T07:35:16;12.60;;;5.10;;
1563;SDS011;775;51.958;7.976;2023-06-19T07:37:43;11.50;;;4.37;;
1563;SDS011;775;51.958;7.976;2023-06-19T07:40:11;11.93;;;4.70;;
1563;SDS011;775;51.958;7.976;2023-06-19T07:42:39;11.03;;;4.33;;
1563;SDS011;775;51.958;7.976;2023-06-19T07:45:07;17.83;;;4.80;;
1563;SDS011;775;51.958;7.976;2023-06-19T07:47:34;12.03;;;5.67;;
1563;SDS011;775;51.958;7.976;2023-06-19T07:50:02;12.53;;;5.80;;
1563;SDS011;775;51.958;7.976;2023-06-19T07:52:29;12.20;;;6.17;;
1563;SDS011;775;51.958;7.976;2023-06-19T07:54:56;11.63;;;5.40;;
1563;SDS011;775;51.958;7.976;2023-06-19T07:57:25;11.47;;;5.17;;
1563;SDS011;775;51.958;7.976;2023-06-19T07:59:54;11.67;;;5.27;;
1563;SDS011;775;51.958;7.976;2023-06-19T08:02:21;11.60;;;5.00;;
1563;SDS011;775;51.958;7.976;2023-06-19T08:04:48;11.20;;;4.60;;
1563;SDS011;775;51.958;7.976;2023-06-19T08:07:16;13.00;;;4.60;;
1563;SDS011;775;51.958;7.976;2023-06-19T08:09:43;12.80;;;4.13;;
1563;SDS011;775;51.958;7.976;2023-06-19T08:12:10;11.13;;;3.90;;
1563;SDS011;775;51.958;7.976;2023-06-19T08:14:37;10.37;;;2.93;;
1563;SDS011;775;51.958;7.976;2023-06-19T08:17:06;12.43;;;3.10;;
1563;SDS011;775;51.958;7.976;2023-06-19T08:19:33;10.77;;;3.30;;
1563;SDS011;775;51.958;7.976;2023-06-19T08:22:00;9.90;;;3.07;;
1563;SDS011;775;51.958;7.976;2023-06-19T08:24:27;11.00;;;2.90;;
1563;SDS011;775;51.958;7.976;2023-06-19T08:26:54;11.90;;;2.80;;
1563;SDS011;775;51.958;7.976;2023-06-19T08:29:22;10.80;;;3.20;;
1563;SDS011;775;51.958;7.976;2023-06-19T08:31:49;11.20;;;2.80;;
1563;SDS011;775;51.958;7.976;2023-06-19T08:34:17;10.30;;;3.00;;
1563;SDS011;775;51.958;7.976;2023-06-19T08:36:44;10.57;;;2.83;;
1563;SDS011;775;51.958;7.976;2023-06-19T08:39:12;10.00;;;2.70;;
1563;SDS011;775;51.958;7.976;2023-06-19T08:41:39;9.83;;;2.73;;
1563;SDS011;775;51.958;7.976;2023-06-19T08:44:07;11.23;;;3.53;;
1563;SDS011;775;51.958;7.976;2023-06-19T08:46:34;11.57;;;4.10;;
1563;SDS011;775;51.958;7.976;2023-06-19T08:49:02;13.93;;;3.43;;
1563;SDS011;775;51.958;7.976;2023-06-19T08:51:32;10.40;;;2.90;;
1563;SDS011;775;51.958;7.976;2023-06-19T08:54:01;11.70;;;3.23;;
1563;SDS011;775;51.958;7.976;2023-06-19T08:56:28;10.10;;;2.93;;
1563;SDS011;775;51.958;7.976;2023-06-19T08:59:06;10.90;;;3.10;;
1563;SDS011;775;51.958;7.976;2023-06-19T09:01:34;10.87;;;2.60;;
1563;SDS011;775;51.958;7.976;2023-06-19T09:04:07;10.50;;;3.20;;
1563;SDS011;775;51.958;7.976;2023-06-19T09:06:38;11.37;;;3.87;;
1563;SDS011;775;51.958;7.976;2023-06-19T09:09:12;11.00;;;4.00;;
1563;SDS011;775;51.958;7.976;2023-06-19T09:11:40;11.50;;;3.47;;
1563;SDS011;775;51.958;7.976;2023-06-19T09:14:09;11.70;;;3.63;;
1563;SDS011;775;51.958;7.976;2023-06-19T09:16:36;12.10;;;3.90;;
1563;SDS011;775;51.958;7.976;2023-06-19T09:19:04;12.20;;;3.47;;
1563;SDS011;775;51.958;7.976;2023-06-19T09:21:31;11.17;;;3.40;;
1563;SDS011;775;51.958;7.976;2023-06-19T09:24:03;11.50;;;3.90;;
1563;SDS011;775;51.958;7.976;2023-06-19T09:26:30;11.20;;;3.40;;
1563;SDS011;775;51.958;7.976;2023-06-19T09:28:57;11.20;;;3.80;;
1563;SDS011;775;51.958;7.976;2023-06-19T09:31:31;11.20;;;3.67;;
1563;SDS011;775;51.958;7.976;2023-06-19T09:33:58;10.83;;;3.57;;
1563;SDS011;775;51.958;7.976;2023-06-19T09:36:25;11.57;;;3.40;;
1563;SDS011;775;51.958;7.976;2023-06-19T09:38:53;11.13;;;3.50;;
1563;SDS011;775;51.958;7.976;2023-06-19T09:41:22;12.47;;;4.10;;
1563;SDS011;775;51.958;7.976;2023-06-19T09:43:50;10.90;;;3.40;;
1563;SDS011;775;51.958;7.976;2023-06-19T09:46:19;11.10;;;3.70;;
1563;SDS011;775;51.958;7.976;2023-06-19T09:48:46;11.23;;;4.00;;
1563;SDS011;775;51.958;7.976;2023-06-19T09:51:16;11.40;;;4.57;;
1563;SDS011;775;51.958;7.976;2023-06-19T09:53:44;11.90;;;4.40;;
1563;SDS011;775;51.958;7.976;2023-06-19T09:56:11;11.70;;;4.40;;
1563;SDS011;775;51.958;7.976;2023-06-19T09:58:40;12.10;;;4.67;;
1563;SDS011;775;51.958;7.976;2023-06-19T10:01:08;11.50;;;4.00;;
1563;SDS011;775;51.958;7.976;2023-06-19T10:03:36;11.80;;;4.77;;
1563;SDS011;775;51.958;7.976;2023-06-19T10:06:05;15.77;;;5.63;;
1563;SDS011;775;51.958;7.976;2023-06-19T10:08:40;12.10;;;5.17;;
1563;SDS011;775;51.958;7.976;2023-06-19T10:11:07;11.60;;;3.73;;
1563;SDS011;775;51.958;7.976;2023-06-19T10:13:35;12.07;;;5.30;;
1563;SDS011;775;51.958;7.976;2023-06-19T10:16:05;11.80;;;4.97;;
1563;SDS011;775;51.958;7.976;2023-06-19T10:18:32;13.97;;;5.00;;
1563;SDS011;775;51.958;7.976;2023-06-19T10:20:59;12.27;;;5.30;;
1563;SDS011;775;51.958;7.976;2023-06-19T10:23:26;11.87;;;4.77;;
1563;SDS011;775;51.958;7.976;2023-06-19T10:25:58;11.47;;;4.40;;
1563;SDS011;775;51.958;7.976;2023-06-19T10:28:25;14.00;;;5.20;;
1563;SDS011;775;51.958;7.976;2023-06-19T10:30:53;12.30;;;4.97;;
1563;SDS011;775;51.958;7.976;2023-06-19T10:33:22;13.03;;;5.00;;
1563;SDS011;775;51.958;7.976;2023-06-19T10:35:50;12.37;;;5.00;;
1563;SDS011;775;51.958;7.976;2023-06-19T10:38:17;12.83;;;5.30;;
1563;SDS011;775;51.958;7.976;2023-06-19T10:40:44;12.90;;;6.27;;
1563;SDS011;775;51.958;7.976;2023-06-19T10:43:12;12.40;;;5.70;;
1563;SDS011;775;51.958;7.976;2023-06-19T10:45:39;12.20;;;5.40;;
1563;SDS011;775;51.958;7.976;2023-06-19T10:48:06;11.77;;;4.90;;
1563;SDS011;775;51.958;7.976;2023-06-19T10:50:36;13.30;;;6.00;;
1563;SDS011;775;51.958;7.976;2023-06-19T10:53:05;13.70;;;5.80;;
1563;SDS011;775;51.958;7.976;2023-06-19T10:55:33;13.50;;;6.03;;
1563;SDS011;775;51.958;7.976;2023-06-19T10:58:00;17.00;;;6.00;;
1563;SDS011;775;51.958;7.976;2023-06-19T11:00:28;12.10;;;5.23;;
1563;SDS011;775;51.958;7.976;2023-06-19T11:02:56;13.50;;;5.50;;
1563;SDS011;775;51.958;7.976;2023-06-19T11:05:24;11.90;;;5.80;;
1563;SDS011;775;51.958;7.976;2023-06-19T11:07:53;11.10;;;4.53;;
1563;SDS011;775;51.958;7.976;2023-06-19T11:10:20;12.77;;;5.03;;
1563;SDS011;775;51.958;7.976;2023-06-19T11:12:48;13.30;;;5.90;;
1563;SDS011;775;51.958;7.976;2023-06-19T11:15:15;11.70;;;5.40;;
1563;SDS011;775;51.958;7.976;2023-06-19T11:17:42;12.93;;;5.20;;
1563;SDS011;775;51.958;7.976;2023-06-19T11:20:10;11.80;;;4.57;;
1563;SDS011;775;51.958;7.976;2023-06-19T11:22:38;11.70;;;5.00;;
1563;SDS011;775;51.958;7.976;2023-06-19T11:25:08;12.33;;;4.00;;
1563;SDS011;775;51.958;7.976;2023-06-19T11:27:39;14.10;;;4.50;;
1563;SDS011;775;51.958;7.976;2023-06-19T11:30:06;17.57;;;5.00;;
1563;SDS011;775;51.958;7.976;2023-06-19T11:32:35;13.20;;;4.37;;
1563;SDS011;775;51.958;7.976;2023-06-19T11:35:06;11.73;;;4.77;;
1563;SDS011;775;51.958;7.976;2023-06-19T11:37:33;13.23;;;6.07;;
1563;SDS011;775;51.958;7.976;2023-06-19T11:40:00;13.70;;;5.70;;
1563;SDS011;775;51.958;7.976;2023-06-19T11:42:44;12.80;;;5.33;;
1563;SDS011;775;51.958;7.976;2023-06-19T11:45:12;12.80;;;5.57;;
1563;SDS011;775;51.958;7.976;2023-06-19T11:47:39;12.57;;;5.70;;
1563;SDS011;775;51.958;7.976;2023-06-19T11:50:06;11.90;;;5.30;;
1563;SDS011;775;51.958;7.976;2023-06-19T11:52:34;13.30;;;5.43;;
1563;SDS011;775;51.958;7.976;2023-06-19T11:55:01;12.20;;;4.80;;
1563;SDS011;775;51.958;7.976;2023-06-19T11:57:28;12.00;;;5.10;;
1563;SDS011;775;51.958;7.976;2023-06-19T11:59:56;13.20;;;4.80;;
1563;SDS011;775;51.958;7.976;2023-06-19T12:02:23;13.70;;;5.80;;
1563;SDS011;775;51.958;7.976;2023-06-19T12:04:51;12.93;;;5.67;;
1563;SDS011;775;51.958;7.976;2023-06-19T12:07:18;12.50;;;5.07;;
1563;SDS011;775;51.958;7.976;2023-06-19T12:09:45;12.43;;;5.73;;
1563;SDS011;775;51.958;7.976;2023-06-19T12:12:12;13.27;;;5.67;;
1563;SDS011;775;51.958;7.976;2023-06-19T12:14:40;13.80;;;5.90;;
1563;SDS011;775;51.958;7.976;2023-06-19T12:17:08;12.57;;;6.30;;
1563;SDS011;775;51.958;7.976;2023-06-19T12:19:35;12.77;;;6.00;;
1563;SDS011;775;51.958;7.976;2023-06-19T12:22:03;13.60;;;6.40;;
1563;SDS011;775;51.958;7.976;2023-06-19T12:24:30;12.50;;;6.13;;
1563;SDS011;775;51.958;7.976;2023-06-19T12:26:57;13.63;;;6.87;;
1563;SDS011;775;51.958;7.976;2023-06-19T12:29:24;12.10;;;5.93;;
1563;SDS011;775;51.958;7.976;2023-06-19T12:31:52;13.83;;;6.57;;
1563;SDS011;775;51.958;7.976;2023-06-19T12:34:20;13.13;;;5.73;;
1563;SDS011;775;51.958;7.976;2023-06-19T12:36:47;16.30;;;6.03;;
1563;SDS011;775;51.958;7.976;2023-06-19T12:39:15;12.70;;;6.07;;
1563;SDS011;775;51.958;7.976;2023-06-19T12:41:42;14.70;;;6.27;;
1563;SDS011;775;51.958;7.976;2023-06-19T12:44:09;12.80;;;5.83;;
1563;SDS011;775;51.958;7.976;2023-06-19T12:46:37;13.73;;;6.07;;
1563;SDS011;775;51.958;7.976;2023-06-19T12:49:06;13.63;;;4.83;;
1563;SDS011;775;51.958;7.976;2023-06-19T12:51:34;11.70;;;5.33;;
1563;SDS011;775;51.958;7.976;2023-06-19T12:54:01;12.40;;;5.53;;
1563;SDS011;775;51.958;7.976;2023-06-19T12:56:29;12.57;;;6.07;;
1563;SDS011;775;51.958;7.976;2023-06-19T12:58:56;12.33;;;5.40;;
1563;SDS011;775;51.958;7.976;2023-06-19T13:01:23;12.87;;;5.90;;
1563;SDS011;775;51.958;7.976;2023-06-19T13:03:50;12.07;;;5.10;;
1563;SDS011;775;51.958;7.976;2023-06-19T13:06:17;11.83;;;5.07;;
1563;SDS011;775;51.958;7.976;2023-06-19T13:08:46;14.07;;;5.17;;
1563;SDS011;775;51.958;7.976;2023-06-19T13:11:13;15.23;;;4.80;;
1563;SDS011;775;51.958;7.976;2023-06-19T13:13:40;12.27;;;4.57;;
1563;SDS011;775;51.958;7.976;2023-06-19T13:16:07;11.80;;;4.60;;
1563;SDS011;775;51.958;7.976;2023-06-19T13:18:35;13.93;;;4.40;;
1563;SDS011;775;51.958;7.976;2023-06-19T13:21:02;11.30;;;4.40;;
1563;SDS011;775;51.958;7.976;2023-06-19T13:23:29;11.67;;;4.17;;
1563;SDS011;775;51.958;7.976;2023-06-19T13:25:58;11.00;;;4.17;;
1563;SDS011;775;51.958;7.976;2023-06-19T13:28:25;11.20;;;4.40;;
1563;SDS011;775;51.958;7.976;2023-06-19T13:30:52;14.37;;;4.80;;
1563;SDS011;775;51.958;7.976;2023-06-19T13:33:19;11.53;;;4.47;;
1563;SDS011;775;51.958;7.976;2023-06-19T13:35:46;11.43;;;3.83;;
1563;SDS011;775;51.958;7.976;2023-06-19T13:38:13;12.53;;;3.90;;
1563;SDS011;775;51.958;7.976;2023-06-19T13:40:41;12.13;;;4.17;;
1563;SDS011;775;51.958;7.976;2023-06-19T13:43:10;11.30;;;3.90;;
1563;SDS011;775;51.958;7.976;2023-06-19T13:45:37;11.77;;;4.17;;
1563;SDS011;775;51.958;7.976;2023-06-19T13:48:04;11.60;;;4.07;;
1563;SDS011;775;51.958;7.976;2023-06-19T13:50:31;15.97;;;4.57;;
1563;SDS011;775;51.958;7.976;2023-06-19T13:52:59;14.07;;;4.60;;
1563;SDS011;775;51.958;7.976;2023-06-19T13:55:27;10.87;;;3.70;;
1563;SDS011;775;51.958;7.976;2023-06-19T13:57:54;10.57;;;3.93;;
1563;SDS011;775;51.958;7.976;2023-06-19T14:00:22;11.80;;;4.23;;
1563;SDS011;775;51.958;7.976;2023-06-19T14:02:49;12.73;;;4.50;;
1563;SDS011;775;51.958;7.976;2023-06-19T14:05:17;12.20;;;4.23;;
1563;SDS011;775;51.958;7.976;2023-06-19T14:07:44;12.20;;;3.90;;
1563;SDS011;775;51.958;7.976;2023-06-19T14:10:11;11.90;;;4.47;;
1563;SDS011;775;51.958;7.976;2023-06-19T14:12:38;11.30;;;4.10;;
1563;SDS011;775;51.958;7.976;2023-06-19T14:15:06;10.90;;;3.73;;
1563;SDS011;775;51.958;7.976;2023-06-19T14:17:35;11.00;;;3.30;;
1563;SDS011;775;51.958;7.976;2023-06-19T14:20:02;12.10;;;3.50;;
1563;SDS011;775;51.958;7.976;2023-06-19T14:22:30;11.00;;;4.00;;
1563;SDS011;775;51.958;7.976;2023-06-19T14:24:57;10.50;;;3.70;;
1563;SDS011;775;51.958;7.976;2023-06-19T14:27:26;11.60;;;4.30;;
1563;SDS011;775;51.958;7.976;2023-06-19T14:29:54;11.10;;;3.40;;
1563;SDS011;775;51.958;7.976;2023-06-19T14:32:21;13.20;;;3.60;;
1563;SDS011;775;51.958;7.976;2023-06-19T14:34:50;10.97;;;4.00;;
1563;SDS011;775;51.958;7.976;2023-06-19T14:37:18;12.23;;;3.97;;
1563;SDS011;775;51.958;7.976;2023-06-19T14:39:45;11.13;;;4.40;;
1563;SDS011;775;51.958;7.976;2023-06-19T14:42:13;11.53;;;4.00;;
1563;SDS011;775;51.958;7.976;2023-06-19T14:44:40;11.13;;;3.40;;
1563;SDS011;775;51.958;7.976;2023-06-19T14:47:07;12.93;;;3.60;;
1563;SDS011;775;51.958;7.976;2023-06-19T14:49:34;11.70;;;4.63;;
1563;SDS011;775;51.958;7.976;2023-06-19T14:52:02;13.30;;;3.73;;
1563;SDS011;775;51.958;7.976;2023-06-19T14:54:30;13.40;;;4.10;;
1563;SDS011;775;51.958;7.976;2023-06-19T14:56:57;10.83;;;3.57;;
1563;SDS011;775;51.958;7.976;2023-06-19T14:59:24;11.60;;;4.00;;
1563;SDS011;775;51.958;7.976;2023-06-19T15:01:51;10.83;;;3.37;;
1563;SDS011;775;51.958;7.976;2023-06-19T15:04:18;11.00;;;3.60;;
1563;SDS011;775;51.958;7.976;2023-06-19T15:06:45;10.73;;;3.50;;
1563;SDS011;775;51.958;7.976;2023-06-19T15:09:14;10.17;;;3.50;;
1563;SDS011;775;51.958;7.976;2023-06-19T15:11:41;11.20;;;4.20;;
1563;SDS011;775;51.958;7.976;2023-06-19T15:14:08;10.47;;;3.50;;
1563;SDS011;775;51.958;7.976;2023-06-19T15:16:35;10.90;;;3.83;;
1563;SDS011;775;51.958;7.976;2023-06-19T15:19:02;11.47;;;4.03;;